sensor_id;sensor_type;location;lat;lon;timestamp;temperature;humidity
4461;DHT22;2243;48.812;9.232;2022-09-09T00:02:22;17.00;99.90
4461;DHT22;2243;48.812;9.232;2022-09-09T00:10:34;16.90;99.90
4461;DHT22;2243;48.812;9.232;2022-09-09T00:16:24;16.80;99.90
4461;DHT22;2243;48.812;9.232;2022-09-09T00:22:19;16.80;99.90
4461;DHT22;2243;48.812;9.232;2022-09-09T00:24:53;16.80;99.90
4461;DHT22;2243;48.812;9.232;2022-09-09T00:27:47;16.90;99.90
4461;DHT22;2243;48.812;9.232;2022-09-09T00:30:22;17.10;99.90
4461;DHT22;2243;48.812;9.232;2022-09-09T00:33:09;17.00;99.90
4461;DHT22;2243;48.812;9.232;2022-09-09T00:35:52;17.10;99.90
4461;DHT22;2243;48.812;9.232;2022-09-09T00:38:35;17.10;99.90
4461;DHT22;2243;48.812;9.232;2022-09-09T00:44:33;17.20;99.90
4461;DHT22;2243;48.812;9.232;2022-09-09T00:56:00;17.10;99.90
4461;DHT22;2243;48.812;9.232;2022-09-09T01:01:41;17.20;99.90
4461;DHT22;2243;48.812;9.232;2022-09-09T01:04:22;17.10;99.90
4461;DHT22;2243;48.812;9.232;2022-09-09T01:07:11;17.30;99.90
4461;DHT22;2243;48.812;9.232;2022-09-09T01:09:59;17.30;99.90
4461;DHT22;2243;48.812;9.232;2022-09-09T01:12:40;17.20;99.90
4461;DHT22;2243;48.812;9.232;2022-09-09T01:15:21;17.30;99.90
4461;DHT22;2243;48.812;9.232;2022-09-09T01:18:00;17.30;99.90
4461;DHT22;2243;48.812;9.232;2022-09-09T01:23:45;17.30;99.90
4461;DHT22;2243;48.812;9.232;2022-09-09T01:26:43;17.20;99.90
4461;DHT22;2243;48.812;9.232;2022-09-09T01:29:16;17.10;99.90
4461;DHT22;2243;48.812;9.232;2022-09-09T01:31:57;17.40;99.90
4461;DHT22;2243;48.812;9.232;2022-09-09T01:34:37;17.50;99.90
4461;DHT22;2243;48.812;9.232;2022-09-09T01:37:11;17.50;99.90
4461;DHT22;2243;48.812;9.232;2022-09-09T01:39:44;17.40;99.90
4461;DHT22;2243;48.812;9.232;2022-09-09T01:42:16;17.40;99.90
4461;DHT22;2243;48.812;9.232;2022-09-09T01:44:48;17.40;99.90
4461;DHT22;2243;48.812;9.232;2022-09-09T01:47:19;17.40;99.90
4461;DHT22;2243;48.812;9.232;2022-09-09T01:49:49;17.20;99.90
4461;DHT22;2243;48.812;9.232;2022-09-09T01:52:20;17.30;99.90
4461;DHT22;2243;48.812;9.232;2022-09-09T01:54:52;17.40;99.90
4461;DHT22;2243;48.812;9.232;2022-09-09T01:57:33;17.40;99.90
4461;DHT22;2243;48.812;9.232;2022-09-09T02:00:11;17.40;99.90
4461;DHT22;2243;48.812;9.232;2022-09-09T02:06:25;17.40;99.90
4461;DHT22;2243;48.812;9.232;2022-09-09T02:08:44;17.40;99.90
4461;DHT22;2243;48.812;9.232;2022-09-09T02:11:19;17.40;99.90
4461;DHT22;2243;48.812;9.232;2022-09-09T02:14:22;17.40;99.90
4461;DHT22;2243;48.812;9.232;2022-09-09T02:17:18;17.40;99.90
4461;DHT22;2243;48.812;9.232;2022-09-09T02:19:54;17.30;99.90
4461;DHT22;2243;48.812;9.232;2022-09-09T02:22:30;17.40;99.90
4461;DHT22;2243;48.812;9.232;2022-09-09T02:25:05;17.50;99.90
4461;DHT22;2243;48.812;9.232;2022-09-09T02:27:39;17.40;99.90
4461;DHT22;2243;48.812;9.232;2022-09-09T02:30:11;17.40;99.90
4461;DHT22;2243;48.812;9.232;2022-09-09T02:32:44;17.40;99.90
4461;DHT22;2243;48.812;9.232;2022-09-09T02:35:21;17.30;99.90
4461;DHT22;2243;48.812;9.232;2022-09-09T02:37:58;17.20;99.90
4461;DHT22;2243;48.812;9.232;2022-09-09T02:40:31;17.30;99.90
4461;DHT22;2243;48.812;9.232;2022-09-09T02:43:02;17.30;99.90
4461;DHT22;2243;48.812;9.232;2022-09-09T02:45:44;17.30;99.90
4461;DHT22;2243;48.812;9.232;2022-09-09T02:48:30;17.30;99.90
4461;DHT22;2243;48.812;9.232;2022-09-09T02:54:37;17.30;99.90
4461;DHT22;2243;48.812;9.232;2022-09-09T02:57:17;17.20;99.90
4461;DHT22;2243;48.812;9.232;2022-09-09T02:59:51;17.10;99.90
4461;DHT22;2243;48.812;9.232;2022-09-09T03:02:23;17.00;99.90
4461;DHT22;2243;48.812;9.232;2022-09-09T03:04:55;16.90;99.90
4461;DHT22;2243;48.812;9.232;2022-09-09T03:07:25;16.80;99.90
4461;DHT22;2243;48.812;9.232;2022-09-09T03:09:57;16.80;99.90
4461;DHT22;2243;48.812;9.232;2022-09-09T03:12:29;16.90;99.90
4461;DHT22;2243;48.812;9.232;2022-09-09T03:15:00;17.00;99.90
4461;DHT22;2243;48.812;9.232;2022-09-09T03:17:30;17.00;99.90
4461;DHT22;2243;48.812;9.232;2022-09-09T03:20:04;17.00;99.90
4461;DHT22;2243;48.812;9.232;2022-09-09T03:22:36;17.10;99.90
4461;DHT22;2243;48.812;9.232;2022-09-09T03:25:07;17.00;99.90
4461;DHT22;2243;48.812;9.232;2022-09-09T03:27:38;17.00;99.90
4461;DHT22;2243;48.812;9.232;2022-09-09T03:30:09;16.90;99.90
4461;DHT22;2243;48.812;9.232;2022-09-09T03:32:41;16.70;99.90
4461;DHT22;2243;48.812;9.232;2022-09-09T03:35:18;16.50;99.90
4461;DHT22;2243;48.812;9.232;2022-09-09T03:37:49;16.30;99.90
4461;DHT22;2243;48.812;9.232;2022-09-09T03:40:21;16.20;99.90
4461;DHT22;2243;48.812;9.232;2022-09-09T03:42:51;16.20;99.90
4461;DHT22;2243;48.812;9.232;2022-09-09T03:45:23;16.20;99.90
4461;DHT22;2243;48.812;9.232;2022-09-09T03:47:54;16.20;99.90
4461;DHT22;2243;48.812;9.232;2022-09-09T03:50:27;16.30;99.90
4461;DHT22;2243;48.812;9.232;2022-09-09T03:52:58;16.30;99.90
4461;DHT22;2243;48.812;9.232;2022-09-09T03:55:29;16.40;99.90
4461;DHT22;2243;48.812;9.232;2022-09-09T03:58:00;16.30;99.90
4461;DHT22;2243;48.812;9.232;2022-09-09T04:00:31;16.20;99.90
4461;DHT22;2243;48.812;9.232;2022-09-09T04:03:02;16.20;99.90
4461;DHT22;2243;48.812;9.232;2022-09-09T04:05:33;16.20;99.90
4461;DHT22;2243;48.812;9.232;2022-09-09T04:08:05;16.00;99.90
4461;DHT22;2243;48.812;9.232;2022-09-09T04:10:36;16.10;99.90
4461;DHT22;2243;48.812;9.232;2022-09-09T04:13:07;16.20;99.90
4461;DHT22;2243;48.812;9.232;2022-09-09T04:15:38;16.20;99.90
4461;DHT22;2243;48.812;9.232;2022-09-09T04:18:11;16.20;99.90
4461;DHT22;2243;48.812;9.232;2022-09-09T04:20:49;16.10;99.90
4461;DHT22;2243;48.812;9.232;2022-09-09T04:23:21;16.00;99.90
4461;DHT22;2243;48.812;9.232;2022-09-09T04:25:54;16.10;99.90
4461;DHT22;2243;48.812;9.232;2022-09-09T04:28:29;15.90;99.90
4461;DHT22;2243;48.812;9.232;2022-09-09T04:31:09;15.90;99.90
4461;DHT22;2243;48.812;9.232;2022-09-09T04:33:44;16.00;99.90
4461;DHT22;2243;48.812;9.232;2022-09-09T04:36:15;16.00;99.90
4461;DHT22;2243;48.812;9.232;2022-09-09T04:38:49;16.20;99.90
4461;DHT22;2243;48.812;9.232;2022-09-09T04:41:20;16.20;99.90
4461;DHT22;2243;48.812;9.232;2022-09-09T04:43:51;16.20;99.90
4461;DHT22;2243;48.812;9.232;2022-09-09T04:46:24;16.20;99.90
4461;DHT22;2243;48.812;9.232;2022-09-09T04:48:55;16.10;99.90
4461;DHT22;2243;48.812;9.232;2022-09-09T04:51:26;16.10;99.90
4461;DHT22;2243;48.812;9.232;2022-09-09T04:53:57;16.20;99.90
4461;DHT22;2243;48.812;9.232;2022-09-09T04:56:28;16.20;99.90
4461;DHT22;2243;48.812;9.232;2022-09-09T04:58:59;16.30;99.90
4461;DHT22;2243;48.812;9.232;2022-09-09T05:01:30;16.40;99.90
4461;DHT22;2243;48.812;9.232;2022-09-09T05:04:02;16.40;99.90
4461;DHT22;2243;48.812;9.232;2022-09-09T05:06:33;16.30;99.90
4461;DHT22;2243;48.812;9.232;2022-09-09T05:09:06;16.20;99.90
4461;DHT22;2243;48.812;9.232;2022-09-09T05:11:37;16.20;99.90
4461;DHT22;2243;48.812;9.232;2022-09-09T05:14:08;16.20;99.90
4461;DHT22;2243;48.812;9.232;2022-09-09T05:16:41;16.20;99.90
4461;DHT22;2243;48.812;9.232;2022-09-09T05:19:15;16.20;99.90
4461;DHT22;2243;48.812;9.232;2022-09-09T05:21:46;16.10;99.90
4461;DHT22;2243;48.812;9.232;2022-09-09T05:24:17;16.20;99.90
4461;DHT22;2243;48.812;9.232;2022-09-09T05:26:48;16.30;99.90
4461;DHT22;2243;48.812;9.232;2022-09-09T05:29:19;16.30;99.90
4461;DHT22;2243;48.812;9.232;2022-09-09T05:31:49;16.30;99.90
4461;DHT22;2243;48.812;9.232;2022-09-09T05:34:20;16.30;99.90
4461;DHT22;2243;48.812;9.232;2022-09-09T05:36:51;16.30;99.90
4461;DHT22;2243;48.812;9.232;2022-09-09T05:39:23;16.30;99.90
4461;DHT22;2243;48.812;9.232;2022-09-09T05:41:54;16.30;99.90
4461;DHT22;2243;48.812;9.232;2022-09-09T05:44:25;16.40;99.90
4461;DHT22;2243;48.812;9.232;2022-09-09T05:46:58;16.60;99.90
4461;DHT22;2243;48.812;9.232;2022-09-09T05:49:29;16.60;99.90
4461;DHT22;2243;48.812;9.232;2022-09-09T05:52:02;16.60;99.90
4461;DHT22;2243;48.812;9.232;2022-09-09T05:54:37;16.60;99.90
4461;DHT22;2243;48.812;9.232;2022-09-09T05:57:08;16.70;99.90
4461;DHT22;2243;48.812;9.232;2022-09-09T05:59:39;16.80;99.90
4461;DHT22;2243;48.812;9.232;2022-09-09T06:02:10;16.80;99.90
4461;DHT22;2243;48.812;9.232;2022-09-09T06:04:43;16.70;99.90
4461;DHT22;2243;48.812;9.232;2022-09-09T06:07:14;16.70;99.90
4461;DHT22;2243;48.812;9.232;2022-09-09T06:09:45;16.80;99.90
4461;DHT22;2243;48.812;9.232;2022-09-09T06:12:16;16.80;99.90
4461;DHT22;2243;48.812;9.232;2022-09-09T06:14:47;16.80;99.90
4461;DHT22;2243;48.812;9.232;2022-09-09T06:17:17;17.00;99.90
4461;DHT22;2243;48.812;9.232;2022-09-09T06:19:48;17.00;99.90
4461;DHT22;2243;48.812;9.232;2022-09-09T06:22:19;16.90;99.90
4461;DHT22;2243;48.812;9.232;2022-09-09T06:24:51;17.00;99.90
4461;DHT22;2243;48.812;9.232;2022-09-09T06:27:22;17.10;99.90
4461;DHT22;2243;48.812;9.232;2022-09-09T06:29:53;17.40;99.90
4461;DHT22;2243;48.812;9.232;2022-09-09T06:32:24;17.50;99.90
4461;DHT22;2243;48.812;9.232;2022-09-09T06:34:55;17.50;99.90
4461;DHT22;2243;48.812;9.232;2022-09-09T06:37:26;17.50;99.90
4461;DHT22;2243;48.812;9.232;2022-09-09T06:39:57;17.60;99.90
4461;DHT22;2243;48.812;9.232;2022-09-09T06:42:28;17.60;99.90
4461;DHT22;2243;48.812;9.232;2022-09-09T06:44:59;17.60;99.90
4461;DHT22;2243;48.812;9.232;2022-09-09T06:47:30;17.70;99.90
4461;DHT22;2243;48.812;9.232;2022-09-09T06:50:01;17.70;99.90
4461;DHT22;2243;48.812;9.232;2022-09-09T06:52:32;17.70;99.90
4461;DHT22;2243;48.812;9.232;2022-09-09T06:55:04;17.80;99.90
4461;DHT22;2243;48.812;9.232;2022-09-09T06:57:35;17.80;99.90
4461;DHT22;2243;48.812;9.232;2022-09-09T07:00:07;17.80;99.90
4461;DHT22;2243;48.812;9.232;2022-09-09T07:02:39;17.80;99.90
4461;DHT22;2243;48.812;9.232;2022-09-09T07:05:11;17.70;99.90
4461;DHT22;2243;48.812;9.232;2022-09-09T07:07:42;17.70;99.90
4461;DHT22;2243;48.812;9.232;2022-09-09T07:10:13;17.80;99.90
4461;DHT22;2243;48.812;9.232;2022-09-09T07:12:44;17.90;99.90
4461;DHT22;2243;48.812;9.232;2022-09-09T07:15:15;18.00;99.90
4461;DHT22;2243;48.812;9.232;2022-09-09T07:17:46;18.10;99.90
4461;DHT22;2243;48.812;9.232;2022-09-09T07:20:17;18.20;99.90
4461;DHT22;2243;48.812;9.232;2022-09-09T07:22:47;18.20;99.90
4461;DHT22;2243;48.812;9.232;2022-09-09T07:25:18;18.30;99.90
4461;DHT22;2243;48.812;9.232;2022-09-09T07:27:56;18.20;99.90
4461;DHT22;2243;48.812;9.232;2022-09-09T07:30:27;18.10;99.90
4461;DHT22;2243;48.812;9.232;2022-09-09T07:32:59;18.10;99.90
4461;DHT22;2243;48.812;9.232;2022-09-09T07:35:30;18.20;99.90
4461;DHT22;2243;48.812;9.232;2022-09-09T07:38:01;18.40;99.90
4461;DHT22;2243;48.812;9.232;2022-09-09T07:40:33;18.50;99.90
4461;DHT22;2243;48.812;9.232;2022-09-09T07:43:04;18.60;99.90
4461;DHT22;2243;48.812;9.232;2022-09-09T07:45:35;18.60;99.90
4461;DHT22;2243;48.812;9.232;2022-09-09T07:48:06;18.60;99.90
4461;DHT22;2243;48.812;9.232;2022-09-09T07:50:37;18.80;99.90
4461;DHT22;2243;48.812;9.232;2022-09-09T07:53:08;19.00;99.90
4461;DHT22;2243;48.812;9.232;2022-09-09T07:55:39;19.10;99.90
4461;DHT22;2243;48.812;9.232;2022-09-09T07:58:09;19.20;99.90
4461;DHT22;2243;48.812;9.232;2022-09-09T08:00:41;19.10;99.90
4461;DHT22;2243;48.812;9.232;2022-09-09T08:03:14;19.10;99.90
4461;DHT22;2243;48.812;9.232;2022-09-09T08:05:45;19.10;99.90
4461;DHT22;2243;48.812;9.232;2022-09-09T08:08:16;19.10;99.90
4461;DHT22;2243;48.812;9.232;2022-09-09T08:10:47;19.20;99.90
4461;DHT22;2243;48.812;9.232;2022-09-09T08:13:18;19.30;99.90
4461;DHT22;2243;48.812;9.232;2022-09-09T08:15:49;19.30;99.90
4461;DHT22;2243;48.812;9.232;2022-09-09T08:18:20;19.50;99.90
4461;DHT22;2243;48.812;9.232;2022-09-09T08:20:52;19.50;99.90
4461;DHT22;2243;48.812;9.232;2022-09-09T08:23:23;19.50;99.90
4461;DHT22;2243;48.812;9.232;2022-09-09T08:26:02;19.60;99.90
4461;DHT22;2243;48.812;9.232;2022-09-09T08:28:34;19.70;99.90
4461;DHT22;2243;48.812;9.232;2022-09-09T08:31:13;19.80;99.90
4461;DHT22;2243;48.812;9.232;2022-09-09T08:33:45;19.80;99.90
4461;DHT22;2243;48.812;9.232;2022-09-09T08:36:18;19.80;99.90
4461;DHT22;2243;48.812;9.232;2022-09-09T08:38:54;20.00;99.90
4461;DHT22;2243;48.812;9.232;2022-09-09T08:50:27;20.60;99.90
4461;DHT22;2243;48.812;9.232;2022-09-09T08:55:53;20.60;99.90
4461;DHT22;2243;48.812;9.232;2022-09-09T08:58:31;20.60;99.90
4461;DHT22;2243;48.812;9.232;2022-09-09T09:10:56;20.50;99.90
4461;DHT22;2243;48.812;9.232;2022-09-09T09:13:21;20.70;99.50
4461;DHT22;2243;48.812;9.232;2022-09-09T09:16:12;20.90;99.00
4461;DHT22;2243;48.812;9.232;2022-09-09T09:18:45;20.90;98.40
4461;DHT22;2243;48.812;9.232;2022-09-09T09:21:25;20.90;98.10
4461;DHT22;2243;48.812;9.232;2022-09-09T09:24:00;20.90;98.10
4461;DHT22;2243;48.812;9.232;2022-09-09T09:26:34;20.90;97.80
4461;DHT22;2243;48.812;9.232;2022-09-09T09:29:15;20.90;97.30
4461;DHT22;2243;48.812;9.232;2022-09-09T09:31:52;20.90;97.30
4461;DHT22;2243;48.812;9.232;2022-09-09T09:34:25;20.80;97.40
4461;DHT22;2243;48.812;9.232;2022-09-09T09:36:57;20.60;98.30
4461;DHT22;2243;48.812;9.232;2022-09-09T09:39:33;20.20;98.60
4461;DHT22;2243;48.812;9.232;2022-09-09T09:42:28;20.10;99.30
4461;DHT22;2243;48.812;9.232;2022-09-09T09:45:20;20.00;99.20
4461;DHT22;2243;48.812;9.232;2022-09-09T09:48:21;19.70;99.90
4461;DHT22;2243;48.812;9.232;2022-09-09T09:50:57;19.30;99.70
4461;DHT22;2243;48.812;9.232;2022-09-09T09:53:33;19.20;99.60
4461;DHT22;2243;48.812;9.232;2022-09-09T09:56:10;19.30;98.70
4461;DHT22;2243;48.812;9.232;2022-09-09T10:01:26;19.70;98.60
4461;DHT22;2243;48.812;9.232;2022-09-09T10:04:22;19.90;98.20
4461;DHT22;2243;48.812;9.232;2022-09-09T10:06:54;20.00;97.70
4461;DHT22;2243;48.812;9.232;2022-09-09T10:09:30;20.10;97.60
4461;DHT22;2243;48.812;9.232;2022-09-09T10:20:38;20.70;97.10
4461;DHT22;2243;48.812;9.232;2022-09-09T10:23:59;20.80;97.00
4461;DHT22;2243;48.812;9.232;2022-09-09T10:26:45;20.80;97.20
4461;DHT22;2243;48.812;9.232;2022-09-09T10:30:05;20.80;97.40
4461;DHT22;2243;48.812;9.232;2022-09-09T10:32:59;20.90;97.80
4461;DHT22;2243;48.812;9.232;2022-09-09T10:36:03;21.00;98.10
4461;DHT22;2243;48.812;9.232;2022-09-09T10:44:49;21.40;98.50
4461;DHT22;2243;48.812;9.232;2022-09-09T10:51:22;22.00;97.80
4461;DHT22;2243;48.812;9.232;2022-09-09T10:57:07;22.30;96.80
4461;DHT22;2243;48.812;9.232;2022-09-09T10:59:45;22.60;96.30
4461;DHT22;2243;48.812;9.232;2022-09-09T11:02:26;22.50;96.30
4461;DHT22;2243;48.812;9.232;2022-09-09T11:05:16;22.50;96.80
4461;DHT22;2243;48.812;9.232;2022-09-09T11:08:01;23.20;96.00
4461;DHT22;2243;48.812;9.232;2022-09-09T11:13:36;24.30;94.40
4461;DHT22;2243;48.812;9.232;2022-09-09T11:16:29;24.80;93.10
4461;DHT22;2243;48.812;9.232;2022-09-09T11:19:40;24.30;93.70
4461;DHT22;2243;48.812;9.232;2022-09-09T11:25:04;23.20;93.60
4461;DHT22;2243;48.812;9.232;2022-09-09T11:34:01;21.30;94.50
4461;DHT22;2243;48.812;9.232;2022-09-09T11:39:56;20.70;95.40
4461;DHT22;2243;48.812;9.232;2022-09-09T11:42:36;20.50;95.60
4461;DHT22;2243;48.812;9.232;2022-09-09T11:47:55;20.40;96.00
4461;DHT22;2243;48.812;9.232;2022-09-09T11:50:37;20.40;95.70
4461;DHT22;2243;48.812;9.232;2022-09-09T11:53:21;20.30;95.90
4461;DHT22;2243;48.812;9.232;2022-09-09T11:58:42;20.30;96.00
4461;DHT22;2243;48.812;9.232;2022-09-09T12:01:37;20.30;96.30
4461;DHT22;2243;48.812;9.232;2022-09-09T12:10:19;20.60;95.70
4461;DHT22;2243;48.812;9.232;2022-09-09T12:13:28;20.80;95.60
4461;DHT22;2243;48.812;9.232;2022-09-09T12:16:00;21.20;94.20
4461;DHT22;2243;48.812;9.232;2022-09-09T12:18:36;21.40;93.90
4461;DHT22;2243;48.812;9.232;2022-09-09T12:21:18;21.30;93.80
4461;DHT22;2243;48.812;9.232;2022-09-09T12:24:10;21.40;93.70
4461;DHT22;2243;48.812;9.232;2022-09-09T12:27:14;21.80;93.20
4461;DHT22;2243;48.812;9.232;2022-09-09T12:30:03;22.00;92.50
4461;DHT22;2243;48.812;9.232;2022-09-09T12:32:38;22.00;92.10
4461;DHT22;2243;48.812;9.232;2022-09-09T12:35:13;22.00;92.50
4461;DHT22;2243;48.812;9.232;2022-09-09T12:38:00;22.30;92.10
4461;DHT22;2243;48.812;9.232;2022-09-09T12:40:34;22.50;91.80
4461;DHT22;2243;48.812;9.232;2022-09-09T12:43:18;22.70;91.30
4461;DHT22;2243;48.812;9.232;2022-09-09T12:45:57;22.70;90.70
4461;DHT22;2243;48.812;9.232;2022-09-09T12:48:37;22.60;90.40
4461;DHT22;2243;48.812;9.232;2022-09-09T12:51:37;22.50;90.50
4461;DHT22;2243;48.812;9.232;2022-09-09T12:54:13;22.30;90.70
4461;DHT22;2243;48.812;9.232;2022-09-09T12:56:46;22.20;90.20
4461;DHT22;2243;48.812;9.232;2022-09-09T12:59:25;22.10;90.50
4461;DHT22;2243;48.812;9.232;2022-09-09T13:01:58;22.10;90.90
4461;DHT22;2243;48.812;9.232;2022-09-09T13:04:29;22.30;91.10
4461;DHT22;2243;48.812;9.232;2022-09-09T13:07:10;22.60;90.90
4461;DHT22;2243;48.812;9.232;2022-09-09T13:09:46;23.00;90.70
4461;DHT22;2243;48.812;9.232;2022-09-09T13:12:22;23.10;90.30
4461;DHT22;2243;48.812;9.232;2022-09-09T13:14:55;23.30;90.20
4461;DHT22;2243;48.812;9.232;2022-09-09T13:17:27;23.40;90.30
4461;DHT22;2243;48.812;9.232;2022-09-09T13:20:01;23.70;88.90
4461;DHT22;2243;48.812;9.232;2022-09-09T13:22:37;23.70;88.70
4461;DHT22;2243;48.812;9.232;2022-09-09T13:27:55;23.30;90.00
4461;DHT22;2243;48.812;9.232;2022-09-09T13:30:36;23.00;90.30
4461;DHT22;2243;48.812;9.232;2022-09-09T13:38:25;22.60;90.90
4461;DHT22;2243;48.812;9.232;2022-09-09T13:41:09;22.70;91.20
4461;DHT22;2243;48.812;9.232;2022-09-09T13:43:45;22.90;90.90
4461;DHT22;2243;48.812;9.232;2022-09-09T13:46:39;23.10;90.70
4461;DHT22;2243;48.812;9.232;2022-09-09T13:51:45;23.90;89.50
4461;DHT22;2243;48.812;9.232;2022-09-09T13:54:21;23.80;88.20
4461;DHT22;2243;48.812;9.232;2022-09-09T13:56:52;23.60;88.70
4461;DHT22;2243;48.812;9.232;2022-09-09T13:59:24;23.40;88.70
4461;DHT22;2243;48.812;9.232;2022-09-09T14:02:16;23.30;88.40
4461;DHT22;2243;48.812;9.232;2022-09-09T14:04:47;23.20;88.60
4461;DHT22;2243;48.812;9.232;2022-09-09T14:07:21;23.20;88.50
4461;DHT22;2243;48.812;9.232;2022-09-09T14:09:52;23.30;87.30
4461;DHT22;2243;48.812;9.232;2022-09-09T14:12:23;23.40;86.80
4461;DHT22;2243;48.812;9.232;2022-09-09T14:14:54;23.60;86.20
4461;DHT22;2243;48.812;9.232;2022-09-09T14:17:26;23.60;85.90
4461;DHT22;2243;48.812;9.232;2022-09-09T14:19:59;23.60;86.00
4461;DHT22;2243;48.812;9.232;2022-09-09T14:22:30;23.40;85.70
4461;DHT22;2243;48.812;9.232;2022-09-09T14:25:01;23.70;84.80
4461;DHT22;2243;48.812;9.232;2022-09-09T14:27:33;24.00;85.00
4461;DHT22;2243;48.812;9.232;2022-09-09T14:30:04;24.30;84.10
4461;DHT22;2243;48.812;9.232;2022-09-09T14:32:36;24.60;82.00
4461;DHT22;2243;48.812;9.232;2022-09-09T14:35:07;24.60;81.60
4461;DHT22;2243;48.812;9.232;2022-09-09T14:37:38;24.20;80.60
4461;DHT22;2243;48.812;9.232;2022-09-09T14:40:10;23.70;81.50
4461;DHT22;2243;48.812;9.232;2022-09-09T14:42:41;23.50;82.20
4461;DHT22;2243;48.812;9.232;2022-09-09T14:45:12;23.70;82.50
4461;DHT22;2243;48.812;9.232;2022-09-09T14:47:43;24.00;82.50
4461;DHT22;2243;48.812;9.232;2022-09-09T14:50:14;24.10;82.20
4461;DHT22;2243;48.812;9.232;2022-09-09T14:52:45;23.90;81.70
4461;DHT22;2243;48.812;9.232;2022-09-09T14:55:17;23.70;81.60
4461;DHT22;2243;48.812;9.232;2022-09-09T14:57:48;23.90;81.70
4461;DHT22;2243;48.812;9.232;2022-09-09T15:00:19;23.80;82.40
4461;DHT22;2243;48.812;9.232;2022-09-09T15:02:54;23.90;82.50
4461;DHT22;2243;48.812;9.232;2022-09-09T15:05:25;24.20;81.80
4461;DHT22;2243;48.812;9.232;2022-09-09T15:07:56;24.50;81.20
4461;DHT22;2243;48.812;9.232;2022-09-09T15:10:28;24.70;80.90
4461;DHT22;2243;48.812;9.232;2022-09-09T15:13:01;24.50;79.80
4461;DHT22;2243;48.812;9.232;2022-09-09T15:15:33;24.40;80.00
4461;DHT22;2243;48.812;9.232;2022-09-09T15:18:05;24.50;79.30
4461;DHT22;2243;48.812;9.232;2022-09-09T15:20:36;24.50;78.60
4461;DHT22;2243;48.812;9.232;2022-09-09T15:23:09;24.30;78.80
4461;DHT22;2243;48.812;9.232;2022-09-09T15:25:54;24.00;79.70
4461;DHT22;2243;48.812;9.232;2022-09-09T15:28:27;23.90;80.40
4461;DHT22;2243;48.812;9.232;2022-09-09T15:30:57;23.60;81.10
4461;DHT22;2243;48.812;9.232;2022-09-09T15:33:30;23.40;81.20
4461;DHT22;2243;48.812;9.232;2022-09-09T15:36:11;23.20;81.90
4461;DHT22;2243;48.812;9.232;2022-09-09T15:38:43;23.10;82.50
4461;DHT22;2243;48.812;9.232;2022-09-09T15:41:16;23.00;82.80
4461;DHT22;2243;48.812;9.232;2022-09-09T15:43:49;23.10;83.20
4461;DHT22;2243;48.812;9.232;2022-09-09T15:46:29;23.00;83.30
4461;DHT22;2243;48.812;9.232;2022-09-09T15:49:10;23.00;82.90
4461;DHT22;2243;48.812;9.232;2022-09-09T15:51:47;22.90;83.60
4461;DHT22;2243;48.812;9.232;2022-09-09T15:54:23;22.80;83.90
4461;DHT22;2243;48.812;9.232;2022-09-09T15:56:58;22.70;84.00
4461;DHT22;2243;48.812;9.232;2022-09-09T15:59:31;22.60;84.50
4461;DHT22;2243;48.812;9.232;2022-09-09T16:02:03;22.40;85.00
4461;DHT22;2243;48.812;9.232;2022-09-09T16:04:35;22.40;85.10
4461;DHT22;2243;48.812;9.232;2022-09-09T16:07:06;22.30;85.20
4461;DHT22;2243;48.812;9.232;2022-09-09T16:09:37;22.40;85.60
4461;DHT22;2243;48.812;9.232;2022-09-09T16:12:08;22.30;85.60
4461;DHT22;2243;48.812;9.232;2022-09-09T16:14:43;22.30;85.90
4461;DHT22;2243;48.812;9.232;2022-09-09T16:17:15;22.30;85.80
4461;DHT22;2243;48.812;9.232;2022-09-09T16:19:47;22.20;90.30
4461;DHT22;2243;48.812;9.232;2022-09-09T16:22:17;22.20;90.20
4461;DHT22;2243;48.812;9.232;2022-09-09T16:24:48;22.00;89.90
4461;DHT22;2243;48.812;9.232;2022-09-09T16:27:20;21.90;89.00
4461;DHT22;2243;48.812;9.232;2022-09-09T16:29:51;21.90;88.70
4461;DHT22;2243;48.812;9.232;2022-09-09T16:32:22;22.00;88.30
4461;DHT22;2243;48.812;9.232;2022-09-09T16:34:53;22.00;88.10
4461;DHT22;2243;48.812;9.232;2022-09-09T16:37:23;21.90;88.10
4461;DHT22;2243;48.812;9.232;2022-09-09T16:39:54;21.80;88.00
4461;DHT22;2243;48.812;9.232;2022-09-09T16:42:25;21.50;88.80
4461;DHT22;2243;48.812;9.232;2022-09-09T16:44:56;21.20;89.70
4461;DHT22;2243;48.812;9.232;2022-09-09T16:47:27;20.90;90.40
4461;DHT22;2243;48.812;9.232;2022-09-09T16:49:58;20.70;90.80
4461;DHT22;2243;48.812;9.232;2022-09-09T16:52:30;20.60;91.10
4461;DHT22;2243;48.812;9.232;2022-09-09T16:55:00;20.50;91.20
4461;DHT22;2243;48.812;9.232;2022-09-09T16:57:31;20.50;91.20
4461;DHT22;2243;48.812;9.232;2022-09-09T17:00:03;20.50;91.10
4461;DHT22;2243;48.812;9.232;2022-09-09T17:02:36;20.40;92.30
4461;DHT22;2243;48.812;9.232;2022-09-09T17:05:07;20.20;95.10
4461;DHT22;2243;48.812;9.232;2022-09-09T17:07:38;19.90;97.40
4461;DHT22;2243;48.812;9.232;2022-09-09T17:10:09;19.60;95.80
4461;DHT22;2243;48.812;9.232;2022-09-09T17:12:40;19.40;95.60
4461;DHT22;2243;48.812;9.232;2022-09-09T17:15:12;19.40;94.50
4461;DHT22;2243;48.812;9.232;2022-09-09T17:17:42;19.40;94.00
4461;DHT22;2243;48.812;9.232;2022-09-09T17:20:15;19.40;93.70
4461;DHT22;2243;48.812;9.232;2022-09-09T17:22:47;19.50;93.60
4461;DHT22;2243;48.812;9.232;2022-09-09T17:25:19;19.60;93.80
4461;DHT22;2243;48.812;9.232;2022-09-09T17:27:52;19.60;93.70
4461;DHT22;2243;48.812;9.232;2022-09-09T17:30:24;19.60;93.90
4461;DHT22;2243;48.812;9.232;2022-09-09T17:32:55;19.70;93.90
4461;DHT22;2243;48.812;9.232;2022-09-09T17:35:26;19.70;94.00
4461;DHT22;2243;48.812;9.232;2022-09-09T17:37:57;19.70;94.30
4461;DHT22;2243;48.812;9.232;2022-09-09T17:40:28;19.70;94.30
4461;DHT22;2243;48.812;9.232;2022-09-09T17:42:59;19.80;94.20
4461;DHT22;2243;48.812;9.232;2022-09-09T17:45:31;19.80;94.20
4461;DHT22;2243;48.812;9.232;2022-09-09T17:48:02;19.80;94.40
4461;DHT22;2243;48.812;9.232;2022-09-09T17:50:34;19.80;94.50
4461;DHT22;2243;48.812;9.232;2022-09-09T17:53:05;19.80;94.40
4461;DHT22;2243;48.812;9.232;2022-09-09T17:55:36;19.70;94.70
4461;DHT22;2243;48.812;9.232;2022-09-09T17:58:07;19.70;94.70
4461;DHT22;2243;48.812;9.232;2022-09-09T18:00:38;19.80;94.80
4461;DHT22;2243;48.812;9.232;2022-09-09T18:03:09;19.70;94.90
4461;DHT22;2243;48.812;9.232;2022-09-09T18:05:40;19.60;95.00
4461;DHT22;2243;48.812;9.232;2022-09-09T18:08:11;19.70;95.00
4461;DHT22;2243;48.812;9.232;2022-09-09T18:10:51;19.70;95.00
4461;DHT22;2243;48.812;9.232;2022-09-09T18:13:25;19.60;95.20
4461;DHT22;2243;48.812;9.232;2022-09-09T18:15:56;19.60;95.20
4461;DHT22;2243;48.812;9.232;2022-09-09T18:18:28;19.60;95.20
4461;DHT22;2243;48.812;9.232;2022-09-09T18:21:02;19.60;95.30
4461;DHT22;2243;48.812;9.232;2022-09-09T18:23:37;19.60;95.20
4461;DHT22;2243;48.812;9.232;2022-09-09T18:26:18;19.70;95.30
4461;DHT22;2243;48.812;9.232;2022-09-09T18:28:57;19.70;95.30
4461;DHT22;2243;48.812;9.232;2022-09-09T18:31:31;19.70;95.40
4461;DHT22;2243;48.812;9.232;2022-09-09T18:34:05;19.70;95.50
4461;DHT22;2243;48.812;9.232;2022-09-09T18:36:45;19.70;95.60
4461;DHT22;2243;48.812;9.232;2022-09-09T18:39:18;19.70;95.70
4461;DHT22;2243;48.812;9.232;2022-09-09T18:41:52;19.70;95.70
4461;DHT22;2243;48.812;9.232;2022-09-09T18:44:27;19.70;95.90
4461;DHT22;2243;48.812;9.232;2022-09-09T18:47:00;19.60;96.00
4461;DHT22;2243;48.812;9.232;2022-09-09T18:49:33;19.60;96.20
4461;DHT22;2243;48.812;9.232;2022-09-09T18:52:04;19.60;96.50
4461;DHT22;2243;48.812;9.232;2022-09-09T18:54:40;19.50;96.60